createdAt,value
2023-01-21T00:02:56.519Z,97885.61
2023-01-21T00:05:59.776Z,97883.69
2023-01-21T00:09:04.114Z,97888.42
2023-01-21T00:12:07.606Z,97888.79
2023-01-21T00:15:11.048Z,97888.39
2023-01-21T00:18:15.324Z,97885.61
2023-01-21T00:21:18.677Z,97884.66
2023-01-21T00:24:24.456Z,97884.09
2023-01-21T00:27:27.737Z,97885.58
2023-01-21T00:30:31.052Z,97888.41
2023-01-21T00:33:45.238Z,97890.16
2023-01-21T00:36:48.455Z,97889.55
2023-01-21T00:39:51.955Z,97887.37
2023-01-21T00:42:55.284Z,97891.72
2023-01-21T00:45:59.091Z,97890.42
2023-01-21T00:49:02.501Z,97888.55
2023-01-21T00:52:05.857Z,97892.81
2023-01-21T00:55:09.332Z,97893.38
2023-01-21T00:58:12.768Z,97897.67
2023-01-21T01:01:19.340Z,97901.25
2023-01-21T01:04:23.087Z,97899.46
2023-01-21T01:07:26.247Z,97899.44
2023-01-21T01:10:29.504Z,97900.69
2023-01-21T01:13:34.975Z,97903.33
2023-01-21T01:16:38.294Z,97900.07
2023-01-21T01:19:41.507Z,97903.09
2023-01-21T01:22:44.743Z,97904.14
2023-01-21T01:26:02.792Z,97906.33
2023-01-21T01:29:06.740Z,97904.58
2023-01-21T01:32:10.843Z,97904.70
2023-01-21T01:35:14.086Z,97903.11
2023-01-21T01:38:22.466Z,97904.64
2023-01-21T01:41:29.536Z,97904.20
2023-01-21T01:44:57.558Z,97903.73
2023-01-21T01:48:06.230Z,97903.69
2023-01-21T01:51:10.086Z,97903.79
2023-01-21T01:54:18.180Z,97908.98
2023-01-21T01:57:24.005Z,97899.91
2023-01-21T02:00:27.632Z,97899.36
2023-01-21T02:03:44.929Z,97896.64
2023-01-21T02:06:49.052Z,97896.35
2023-01-21T02:09:53.801Z,97898.08
2023-01-21T02:12:57.045Z,97894.61
2023-01-21T02:16:15.126Z,97889.16
2023-01-21T02:19:42.288Z,97888.91
2023-01-21T02:23:12.344Z,97889.35
2023-01-21T02:26:21.032Z,97890.83
2023-01-21T02:29:52.941Z,97884.11
2023-01-21T02:33:14.400Z,97886.46
2023-01-21T02:36:35.971Z,97885.64
2023-01-21T02:39:54.468Z,97889.39
2023-01-21T02:43:08.396Z,97890.14
2023-01-21T02:46:34.115Z,97892.95
2023-01-21T02:49:45.407Z,97887.70
2023-01-21T02:52:59.072Z,97885.71
2023-01-21T02:56:12.201Z,97886.55
2023-01-21T02:59:15.424Z,97883.18
2023-01-21T03:02:46.474Z,97880.36
2023-01-21T03:05:57.104Z,97878.41
2023-01-21T03:09:10.232Z,97877.47
2023-01-21T03:12:45.277Z,97877.41
2023-01-21T03:16:14.409Z,97875.26
2023-01-21T03:19:19.660Z,97881.61
2023-01-21T03:22:27.983Z,97882.13
2023-01-21T03:25:34.004Z,97883.16
2023-01-21T03:28:44.759Z,97884.88
2023-01-21T03:31:52.207Z,97884.02
2023-01-21T03:34:56.706Z,97882.86
2023-01-21T03:38:21.784Z,97877.04
2023-01-21T03:41:33.580Z,97873.70
2023-01-21T03:44:38.000Z,97879.14
2023-01-21T03:47:50.473Z,97880.02
2023-01-21T03:50:59.781Z,97880.41
2023-01-21T03:54:03.051Z,97883.69
2023-01-21T03:57:06.537Z,97891.58
2023-01-21T04:00:10.798Z,97895.98
2023-01-21T04:03:13.985Z,97897.08
2023-01-21T04:06:20.233Z,97898.20
2023-01-21T04:09:23.711Z,97899.40
2023-01-21T04:12:26.896Z,97900.84
2023-01-21T04:15:30.055Z,97899.03
2023-01-21T04:18:33.411Z,97896.85
2023-01-21T04:21:36.598Z,97893.12
2023-01-21T04:24:40.473Z,97894.58
2023-01-21T04:27:43.656Z,97900.02
2023-01-21T04:30:47.541Z,97898.75
2023-01-21T04:33:50.752Z,97898.38
2023-01-21T04:36:53.927Z,97902.27
2023-01-21T04:39:57.110Z,97903.57
2023-01-21T04:43:00.318Z,97907.83
2023-01-21T04:46:03.746Z,97905.21
2023-01-21T04:49:06.916Z,97906.05
2023-01-21T04:52:10.313Z,97903.39
2023-01-21T04:55:13.520Z,97901.40
2023-01-21T04:58:16.701Z,97901.38
2023-01-21T05:01:19.839Z,97899.39
2023-01-21T05:04:23.052Z,97897.60
2023-01-21T05:07:26.342Z,97888.64
2023-01-21T05:10:29.909Z,97880.11
2023-01-21T05:13:33.418Z,97885.13
2023-01-21T05:16:36.891Z,97882.33
2023-01-21T05:19:40.085Z,97877.16
2023-01-21T05:22:47.843Z,97881.83
2023-01-21T05:25:51.129Z,97883.95
2023-01-21T05:28:54.281Z,97884.54
2023-01-21T05:31:57.478Z,97888.35
2023-01-21T05:35:00.618Z,97896.66
2023-01-21T05:38:03.875Z,97894.44
2023-01-21T05:41:07.156Z,97892.66
2023-01-21T05:44:10.619Z,97892.84
2023-01-21T05:47:13.838Z,97897.34
2023-01-21T05:50:18.299Z,97899.54
2023-01-21T05:53:21.702Z,97906.84
2023-01-21T05:56:24.905Z,97904.14
2023-01-21T05:59:28.588Z,97903.92
2023-01-21T06:02:31.851Z,97896.56
2023-01-21T06:05:35.190Z,97894.56
2023-01-21T06:08:38.621Z,97893.98
2023-01-21T06:11:42.162Z,97895.17
2023-01-21T06:14:45.299Z,97893.17
2023-01-21T06:17:48.415Z,97892.84
2023-01-21T06:20:51.677Z,97885.77
2023-01-21T06:23:54.866Z,97885.17
2023-01-21T06:26:58.043Z,97884.50
2023-01-21T06:30:01.201Z,97886.58
2023-01-21T06:33:04.632Z,97894.17
2023-01-21T06:36:08.511Z,97890.36
2023-01-21T06:39:11.841Z,97890.54
2023-01-21T06:42:17.868Z,97889.69
2023-01-21T06:45:21.133Z,97895.98
2023-01-21T06:48:24.385Z,97894.08
2023-01-21T06:51:27.635Z,97898.56
2023-01-21T06:54:30.963Z,97902.46
2023-01-21T06:57:34.154Z,97905.54
2023-01-21T07:00:37.414Z,97915.00
2023-01-21T07:03:40.595Z,97919.96
2023-01-21T07:06:43.893Z,97922.42
2023-01-21T07:09:47.193Z,97922.72
2023-01-21T07:12:50.820Z,97930.37
2023-01-21T07:15:59.851Z,97932.70
2023-01-21T07:19:03.309Z,97933.20
2023-01-21T07:22:06.607Z,97937.63
2023-01-21T07:25:10.108Z,97940.21
2023-01-21T07:28:13.303Z,97941.42
2023-01-21T07:31:16.580Z,97940.45
2023-01-21T07:34:19.916Z,97943.38
2023-01-21T07:37:23.127Z,97943.17
2023-01-21T07:40:26.416Z,97943.83
2023-01-21T07:43:29.608Z,97942.13
2023-01-21T07:46:33.329Z,97941.50
2023-01-21T07:49:37.796Z,97944.80
2023-01-21T07:52:41.106Z,97946.49
2023-01-21T07:55:44.317Z,97946.05
2023-01-21T07:58:47.747Z,97947.09
2023-01-21T08:01:50.999Z,97944.89
2023-01-21T08:04:54.370Z,97947.81
2023-01-21T08:07:58.798Z,97951.64
2023-01-21T08:11:02.042Z,97953.52
2023-01-21T08:14:05.762Z,97950.05
2023-01-21T08:17:09.870Z,97955.71
2023-01-21T08:20:13.689Z,97964.05
2023-01-21T08:23:16.914Z,97959.59
2023-01-21T08:26:20.131Z,97957.77
2023-01-21T08:29:23.360Z,97957.09
2023-01-21T08:32:29.881Z,97963.39
2023-01-21T08:35:33.065Z,97961.34
2023-01-21T08:38:36.963Z,97956.58
2023-01-21T08:41:42.879Z,97958.91
2023-01-21T08:44:46.511Z,97965.19
2023-01-21T08:47:49.675Z,97961.98
2023-01-21T08:50:52.896Z,97968.71
2023-01-21T08:53:56.117Z,97970.06
2023-01-21T08:56:59.269Z,97972.15
2023-01-21T09:00:02.491Z,97971.66
2023-01-21T09:03:05.761Z,97972.06
2023-01-21T09:06:12.617Z,97970.48
2023-01-21T09:09:16.211Z,97971.83
2023-01-21T09:12:19.531Z,97972.77
2023-01-21T09:15:22.741Z,97971.88
2023-01-21T09:18:26.053Z,97969.46
2023-01-21T09:21:34.552Z,97970.03
2023-01-21T09:24:37.850Z,97972.59
2023-01-21T09:27:41.292Z,97975.76
2023-01-21T09:30:44.730Z,97975.23
2023-01-21T09:33:50.232Z,97977.36
2023-01-21T09:36:53.555Z,97983.34
2023-01-21T09:39:56.714Z,97983.61
2023-01-21T09:43:11.020Z,97984.81
2023-01-21T09:46:55.496Z,97991.02
2023-01-21T09:50:14.169Z,97997.64
2023-01-21T09:53:32.574Z,98001.56
2023-01-21T09:56:45.566Z,98000.45
2023-01-21T10:00:10.013Z,97999.02
2023-01-21T10:03:37.297Z,98001.56
2023-01-21T10:06:59.781Z,98001.03
2023-01-21T10:10:27.890Z,98001.21
2023-01-21T10:13:46.332Z,98001.77
2023-01-21T10:17:13.601Z,98009.77
2023-01-21T10:20:27.197Z,98000.05
2023-01-21T10:23:43.718Z,98000.81
2023-01-21T10:26:49.677Z,98007.39
2023-01-21T10:30:22.396Z,98010.63
2023-01-21T10:33:26.927Z,98001.88
2023-01-21T10:36:49.392Z,97996.60
2023-01-21T10:40:38.861Z,97997.48
2023-01-21T10:43:54.959Z,97998.32
2023-01-21T10:47:34.473Z,97993.74
2023-01-21T10:51:28.794Z,97995.96
2023-01-21T10:54:47.127Z,97992.81
2023-01-21T10:58:04.068Z,97989.04
2023-01-21T11:01:18.752Z,97987.77
2023-01-21T11:04:24.482Z,97985.48
2023-01-21T11:07:34.891Z,97988.01
2023-01-21T11:10:40.359Z,97991.04
2023-01-21T11:13:43.623Z,97994.84
2023-01-21T11:16:50.059Z,97994.65
2023-01-21T11:20:00.768Z,97994.09
2023-01-21T11:23:24.339Z,97990.16
2023-01-21T11:26:28.246Z,97991.05
2023-01-21T11:29:41.553Z,97986.39
2023-01-21T11:32:44.894Z,97984.10
2023-01-21T11:35:48.422Z,97977.67
2023-01-21T11:39:06.620Z,97976.10
2023-01-21T11:42:17.120Z,97975.64
2023-01-21T11:45:31.170Z,97974.52
2023-01-21T11:48:35.430Z,97973.43
2023-01-21T11:51:41.233Z,97971.83
2023-01-21T11:54:45.326Z,97975.10
2023-01-21T11:57:53.268Z,97979.45
2023-01-21T12:00:59.945Z,97985.81
2023-01-21T12:04:03.346Z,97986.27
2023-01-21T12:07:06.655Z,97987.54
2023-01-21T12:10:12.890Z,97987.94
2023-01-21T12:13:24.092Z,97993.40
2023-01-21T12:16:37.398Z,97991.15
2023-01-21T12:19:57.463Z,97986.80
2023-01-21T12:23:23.959Z,97983.41
2023-01-21T12:26:33.014Z,97988.98
2023-01-21T12:29:52.596Z,97991.55
2023-01-21T12:33:03.718Z,97992.95
2023-01-21T12:36:17.661Z,97993.67
2023-01-21T12:39:29.094Z,97995.31
2023-01-21T12:42:41.200Z,98001.98
2023-01-21T12:45:53.640Z,98001.71
2023-01-21T12:48:56.714Z,98008.04
2023-01-21T12:52:07.551Z,98011.63
2023-01-21T12:55:25.561Z,98008.75
2023-01-21T12:58:42.852Z,98011.13
2023-01-21T13:02:05.794Z,98010.48
2023-01-21T13:05:19.389Z,98016.31
2023-01-21T13:08:43.658Z,98019.15
2023-01-21T13:11:54.830Z,98019.38
2023-01-21T13:15:14.761Z,98026.20
2023-01-21T13:18:35.489Z,98030.15
2023-01-21T13:22:01.390Z,98033.25
2023-01-21T13:25:25.679Z,98046.35
2023-01-21T13:29:06.135Z,98053.36
2023-01-21T13:32:18.963Z,98057.10
2023-01-21T13:35:40.752Z,98067.27
2023-01-21T13:38:55.275Z,98076.64
2023-01-21T13:42:07.456Z,98083.96
2023-01-21T13:45:34.743Z,98093.22
2023-01-21T13:49:14.878Z,98096.98
2023-01-21T13:52:39.408Z,98098.98
2023-01-21T13:56:15.610Z,98107.56
2023-01-21T13:59:25.179Z,98110.89
2023-01-21T14:02:56.658Z,98115.54
2023-01-21T14:06:17.638Z,98114.27
2023-01-21T14:09:29.588Z,98119.99
2023-01-21T14:12:54.946Z,98124.91
2023-01-21T14:16:32.351Z,98127.30
2023-01-21T14:19:54.715Z,98126.90
2023-01-21T14:23:05.736Z,98125.06
2023-01-21T14:26:35.996Z,98125.62
2023-01-21T14:29:46.687Z,98126.59
2023-01-21T14:32:57.159Z,98129.27
2023-01-21T14:36:39.530Z,98139.19
2023-01-21T14:40:09.612Z,98140.92
2023-01-21T14:43:30.921Z,98142.64
2023-01-21T14:46:34.405Z,98148.11
2023-01-21T14:49:43.526Z,98145.45
2023-01-21T14:52:47.242Z,98152.61
2023-01-21T14:56:09.055Z,98160.23
2023-01-21T14:59:43.654Z,98168.30
2023-01-21T15:02:52.234Z,98166.63
2023-01-21T15:06:00.507Z,98168.97
2023-01-21T15:09:05.545Z,98172.45
2023-01-21T15:12:22.144Z,98182.17
2023-01-21T15:15:39.887Z,98184.74
2023-01-21T15:19:05.179Z,98190.73
2023-01-21T15:22:35.465Z,98195.13
2023-01-21T15:26:07.456Z,98201.70
2023-01-21T15:29:34.358Z,98205.46
2023-01-21T15:32:44.769Z,98209.33
2023-01-21T15:35:48.280Z,98210.96
2023-01-21T15:38:54.591Z,98214.20
2023-01-21T15:42:30.318Z,98213.25
2023-01-21T15:45:45.109Z,98221.64
2023-01-21T15:49:19.208Z,98226.27
2023-01-21T15:52:44.151Z,98234.06
2023-01-21T15:56:13.149Z,98243.88
2023-01-21T15:59:36.050Z,98252.52
2023-01-21T16:02:57.921Z,98261.96
2023-01-21T16:06:14.909Z,98270.92
2023-01-21T16:09:34.111Z,98280.05
2023-01-21T16:12:43.526Z,98285.64
2023-01-21T16:16:02.465Z,98287.52
2023-01-21T16:19:13.519Z,98293.38
2023-01-21T16:22:25.717Z,98293.89
2023-01-21T16:25:29.061Z,98296.92
2023-01-21T16:28:51.416Z,98300.90
2023-01-21T16:32:01.532Z,98305.06
2023-01-21T16:35:05.904Z,98304.55
2023-01-21T16:38:15.303Z,98309.00
2023-01-21T16:41:24.069Z,98313.18
2023-01-21T16:44:27.492Z,98314.56
2023-01-21T16:47:36.214Z,98317.52
2023-01-21T16:50:46.710Z,98315.86
2023-01-21T16:53:53.745Z,98320.58
2023-01-21T16:57:02.488Z,98324.44
2023-01-21T17:00:22.458Z,98319.61
2023-01-21T17:03:25.813Z,98324.73
2023-01-21T17:06:31.991Z,98323.93
2023-01-21T17:09:37.121Z,98331.67
2023-01-21T17:12:40.661Z,98330.53
2023-01-21T17:15:57.396Z,98336.77
2023-01-21T17:19:08.557Z,98337.87
2023-01-21T17:22:19.017Z,98344.35
2023-01-21T17:25:25.858Z,98347.96
2023-01-21T17:28:44.376Z,98357.15
2023-01-21T17:32:04.862Z,98364.00
2023-01-21T17:35:17.884Z,98375.65
2023-01-21T17:38:30.210Z,98379.91
2023-01-21T17:41:38.245Z,98386.86
2023-01-21T17:44:46.257Z,98388.59
2023-01-21T17:48:08.596Z,98387.77
2023-01-21T17:51:22.254Z,98392.18
2023-01-21T17:54:29.680Z,98395.48
2023-01-21T17:57:35.625Z,98404.76
2023-01-21T18:00:43.251Z,98402.15
2023-01-21T18:03:46.794Z,98401.23
2023-01-21T18:06:52.219Z,98412.03
2023-01-21T18:10:02.317Z,98420.25
2023-01-21T18:13:05.949Z,98429.73
2023-01-21T18:16:09.726Z,98436.08
2023-01-21T18:19:32.202Z,98446.73
2023-01-21T18:22:36.163Z,98453.49
2023-01-21T18:25:43.609Z,98458.28
2023-01-21T18:28:46.856Z,98459.73
2023-01-21T18:31:52.174Z,98468.66
2023-01-21T18:34:55.475Z,98471.71
2023-01-21T18:37:58.681Z,98477.85
2023-01-21T18:41:02.140Z,98476.77
2023-01-21T18:44:05.455Z,98484.62
2023-01-21T18:47:15.938Z,98484.70
2023-01-21T18:50:22.401Z,98487.98
2023-01-21T18:53:25.964Z,98491.10
2023-01-21T18:56:29.230Z,98496.83
2023-01-21T18:59:34.667Z,98504.05
2023-01-21T19:02:38.915Z,98513.11
2023-01-21T19:05:45.601Z,98511.14
2023-01-21T19:08:51.233Z,98510.73
2023-01-21T19:12:01.591Z,98513.45
2023-01-21T19:15:08.193Z,98514.73
2023-01-21T19:18:13.191Z,98516.98
2023-01-21T19:21:16.988Z,98517.79
2023-01-21T19:24:21.049Z,98526.45
2023-01-21T19:27:29.340Z,98530.14
2023-01-21T19:30:32.856Z,98533.78
2023-01-21T19:33:36.253Z,98527.13
2023-01-21T19:36:40.192Z,98531.05
2023-01-21T19:39:43.412Z,98526.23
2023-01-21T19:42:47.340Z,98529.67
2023-01-21T19:45:52.845Z,98527.19
2023-01-21T19:48:57.835Z,98530.75
2023-01-21T19:52:01.180Z,98542.48
2023-01-21T19:55:06.376Z,98541.69
2023-01-21T19:58:19.760Z,98550.08
2023-01-21T20:01:23.407Z,98549.93
2023-01-21T20:04:26.598Z,98552.59
2023-01-21T20:07:30.995Z,98562.33
2023-01-21T20:10:34.229Z,98568.45
2023-01-21T20:13:39.339Z,98570.02
2023-01-21T20:16:50.043Z,98569.02
2023-01-21T20:19:53.287Z,98567.62
2023-01-21T20:22:56.769Z,98575.92
2023-01-21T20:26:00.957Z,98587.02
2023-01-21T20:29:06.752Z,98593.29
2023-01-21T20:32:10.703Z,98598.96
2023-01-21T20:35:15.919Z,98602.20
2023-01-21T20:38:30.252Z,98612.83
2023-01-21T20:41:34.442Z,98612.53
2023-01-21T20:44:37.684Z,98616.63
2023-01-21T20:47:50.128Z,98622.92
2023-01-21T20:50:54.182Z,98626.73
2023-01-21T20:53:57.447Z,98635.43
2023-01-21T20:57:00.707Z,98635.57
2023-01-21T21:00:05.440Z,98629.25
2023-01-21T21:03:08.727Z,98634.41
2023-01-21T21:06:22.079Z,98635.94
2023-01-21T21:09:25.240Z,98645.79
2023-01-21T21:12:28.448Z,98654.34
2023-01-21T21:15:34.330Z,98657.27
2023-01-21T21:18:37.473Z,98656.45
2023-01-21T21:21:40.666Z,98654.59
2023-01-21T21:24:43.945Z,98654.17
2023-01-21T21:27:47.341Z,98660.55
2023-01-21T21:30:50.553Z,98677.54
2023-01-21T21:33:53.837Z,98674.31
2023-01-21T21:36:57.252Z,98652.87
2023-01-21T21:40:00.752Z,98662.55
2023-01-21T21:43:23.559Z,98666.20
2023-01-21T21:46:45.502Z,98668.83
2023-01-21T21:49:48.693Z,98670.44
2023-01-21T21:52:51.901Z,98678.90
2023-01-21T21:55:55.089Z,98676.33
2023-01-21T21:58:58.259Z,98692.02
2023-01-21T22:02:01.443Z,98693.54
2023-01-21T22:05:05.072Z,98692.54
2023-01-21T22:08:09.249Z,98691.73
2023-01-21T22:11:20.551Z,98691.06
2023-01-21T22:14:23.708Z,98691.48
2023-01-21T22:17:26.939Z,98695.45
2023-01-21T22:20:30.134Z,98691.38
2023-01-21T22:23:35.671Z,98689.34
2023-01-21T22:26:38.863Z,98686.27
2023-01-21T22:29:42.066Z,98701.08
2023-01-21T22:32:45.369Z,98702.70
2023-01-21T22:35:48.547Z,98706.98
2023-01-21T22:38:52.557Z,98694.87
2023-01-21T22:41:55.844Z,98701.55
2023-01-21T22:44:59.073Z,98709.78
2023-01-21T22:48:02.472Z,98706.56
2023-01-21T22:51:05.916Z,98711.48
2023-01-21T22:54:10.128Z,98712.13
2023-01-21T22:57:13.542Z,98707.41
2023-01-21T23:00:34.624Z,98708.01
2023-01-21T23:03:37.858Z,98719.33
2023-01-21T23:06:41.095Z,98719.02
2023-01-21T23:09:44.330Z,98715.83
2023-01-21T23:12:48.182Z,98715.86
2023-01-21T23:15:51.427Z,98724.72
2023-01-21T23:18:54.585Z,98729.23
2023-01-21T23:21:57.741Z,98723.18
2023-01-21T23:25:00.932Z,98724.77
2023-01-21T23:28:04.335Z,98728.48
2023-01-21T23:31:13.876Z,98730.17
2023-01-21T23:34:17.716Z,98732.11
2023-01-21T23:37:20.929Z,98736.27
2023-01-21T23:40:24.064Z,98738.67
2023-01-21T23:43:27.422Z,98732.88
2023-01-21T23:46:30.785Z,98733.16
2023-01-21T23:49:34.115Z,98730.83
2023-01-21T23:52:40.818Z,98729.25
2023-01-21T23:55:44.675Z,98734.69
2023-01-21T23:58:48.159Z,98734.05
